Time;durP1;ratioP1;P1;durP2;ratioP2;P2;SDS_P1;SDS_P2;PMS_P1;PMS_P2;Temp;Humidity;BMP_temperature;BMP_pressure;BME280_temperature;BME280_humidity;BME280_pressure;Samples;Min_cycle;Max_cycle;Signal;HPM_P1;HPM_P2
2021/09/18 00:00:00;;;;;;;4.05;1.77;;;;;;;;;;5041798;28;20142;-69
2021/09/18 00:02:26;;;;;;;5.45;1.60;;;;;;;;;;5060871;28;20139;-69
2021/09/18 00:04:52;;;;;;;6.00;1.80;;;;;;;;;;5042249;28;20059;-69
2021/09/18 00:07:19;;;;;;;4.20;1.95;;;;;;;;;;5041434;28;20056;-69
2021/09/18 00:09:45;;;;;;;8.88;1.90;;;;;;;;;;5057614;28;20049;-69
2021/09/18 00:12:11;;;;;;;4.85;1.52;;;;;;;;;;5059036;28;20037;-69
2021/09/18 00:14:39;;;;;;;5.38;1.70;;;;;;;;;;5038015;28;20049;-69
2021/09/18 00:17:06;;;;;;;6.88;1.73;;;;;;;;;;5045759;28;20083;-69
2021/09/18 00:19:32;;;;;;;3.90;1.70;;;;;;;;;;5064921;28;20098;-69
2021/09/18 00:21:58;;;;;;;5.90;1.88;;;;;;;;;;5058526;28;20127;-69
2021/09/18 00:24:24;;;;;;;5.20;1.85;;;;;;;;;;5045716;28;20127;-69
2021/09/18 00:26:51;;;;;;;9.40;1.90;;;;;;;;;;5060472;28;20048;-69
2021/09/18 00:29:17;;;;;;;5.47;2.08;;;;;;;;;;5034466;28;20041;-69
2021/09/18 00:31:43;;;;;;;6.35;2.63;;;;;;;;;;5059485;28;20102;-69
2021/09/18 00:34:10;;;;;;;6.72;2.00;;;;;;;;;;5039470;28;20192;-69
2021/09/18 00:36:36;;;;;;;4.88;2.15;;;;;;;;;;5040509;28;20056;-69
2021/09/18 00:39:03;;;;;;;5.03;2.22;;;;;;;;;;5034856;28;20045;-69
2021/09/18 00:41:29;;;;;;;6.40;2.40;;;;;;;;;;5041874;28;20036;-69
2021/09/18 00:43:56;;;;;;;7.63;2.55;;;;;;;;;;5042262;28;20044;-69
2021/09/18 00:46:23;;;;;;;6.10;2.03;;;;;;;;;;5062525;28;21199;-69
2021/09/18 00:48:49;;;;;;;4.57;2.17;;;;;;;;;;5044162;28;20074;-69
2021/09/18 00:51:17;;;;;;;4.82;2.47;;;;;;;;;;5048423;28;20522;-69
2021/09/18 00:53:43;;;;;;;5.72;3.10;;;;;;;;;;5051476;28;20036;-69
2021/09/18 00:56:10;;;;;;;6.07;2.30;;;;;;;;;;5065290;28;20075;-69
2021/09/18 00:58:36;;;;;;;3.83;2.30;;;;;;;;;;5066190;28;20087;-69
2021/09/18 01:01:03;;;;;;;4.55;2.30;;;;;;;;;;5067521;28;20032;-69
2021/09/18 01:03:29;;;;;;;8.63;2.60;;;;;;;;;;5049120;28;20094;-69
2021/09/18 01:05:57;;;;;;;5.13;2.50;;;;;;;;;;5062863;28;20120;-69
2021/09/18 01:08:23;;;;;;;5.03;2.63;;;;;;;;;;5045943;28;20041;-70
2021/09/18 01:10:49;;;;;;;6.32;2.70;;;;;;;;;;5045269;28;20056;-69
2021/09/18 01:13:18;;;;;;;7.18;2.70;;;;;;;;;;5034192;28;20041;-69
2021/09/18 01:15:44;;;;;;;6.95;3.67;;;;;;;;;;5067294;28;20173;-69
2021/09/18 01:18:10;;;;;;;5.97;2.60;;;;;;;;;;5067029;28;20459;-69
2021/09/18 01:20:38;;;;;;;6.30;2.42;;;;;;;;;;5047563;28;20140;-69
2021/09/18 01:23:06;;;;;;;5.07;2.72;;;;;;;;;;5045920;28;20045;-69
2021/09/18 01:25:33;;;;;;;4.93;2.38;;;;;;;;;;5063840;28;20072;-69
2021/09/18 01:28:00;;;;;;;6.97;2.72;;;;;;;;;;5061054;28;20103;-69
2021/09/18 01:30:28;;;;;;;4.63;2.33;;;;;;;;;;5067493;28;20040;-69
2021/09/18 01:32:54;;;;;;;5.47;2.50;;;;;;;;;;5050712;28;20601;-69
2021/09/18 01:35:20;;;;;;;6.22;2.67;;;;;;;;;;5031921;28;20056;-69
2021/09/18 01:37:47;;;;;;;7.35;2.40;;;;;;;;;;5048298;28;20531;-69
2021/09/18 01:40:19;;;;;;;7.63;2.58;;;;;;;;;;5045595;28;20516;-69
2021/09/18 01:42:46;;;;;;;6.40;2.20;;;;;;;;;;5050059;28;20433;-69
2021/09/18 01:45:12;;;;;;;7.35;2.00;;;;;;;;;;5061595;28;20476;-69
2021/09/18 01:47:41;;;;;;;5.13;2.15;;;;;;;;;;5063962;28;20040;-69
2021/09/18 01:50:18;;;;;;;8.02;2.30;;;;;;;;;;5066286;28;20044;-68
2021/09/18 01:52:47;;;;;;;4.60;1.88;;;;;;;;;;5047095;28;20052;-69
2021/09/18 01:55:14;;;;;;;4.60;2.00;;;;;;;;;;5065450;28;20066;-69
2021/09/18 01:57:43;;;;;;;5.95;2.08;;;;;;;;;;5048078;28;20041;-69
2021/09/18 02:00:10;;;;;;;5.78;2.03;;;;;;;;;;5063645;28;20479;-69
2021/09/18 02:02:36;;;;;;;4.25;2.10;;;;;;;;;;5062681;28;20084;-69
2021/09/18 02:05:03;;;;;;;5.57;2.42;;;;;;;;;;5065279;28;20044;-69
2021/09/18 02:07:29;;;;;;;4.57;2.13;;;;;;;;;;5063327;28;20047;-69
2021/09/18 02:09:55;;;;;;;4.57;2.35;;;;;;;;;;5047884;28;20043;-69
2021/09/18 02:12:21;;;;;;;6.15;2.30;;;;;;;;;;5046227;28;20388;-69
2021/09/18 02:14:47;;;;;;;4.63;2.05;;;;;;;;;;5061595;28;20044;-69
2021/09/18 02:17:13;;;;;;;5.15;2.40;;;;;;;;;;5062225;28;20032;-69
2021/09/18 02:19:39;;;;;;;4.80;2.17;;;;;;;;;;5039254;28;20127;-69
2021/09/18 02:22:06;;;;;;;7.18;2.72;;;;;;;;;;5043203;28;20067;-69
2021/09/18 02:24:32;;;;;;;5.13;2.42;;;;;;;;;;5062491;28;20047;-69
2021/09/18 02:26:58;;;;;;;4.63;2.50;;;;;;;;;;5061028;28;20446;-69
2021/09/18 02:29:24;;;;;;;5.50;2.47;;;;;;;;;;5063420;28;20045;-69
2021/09/18 02:31:50;;;;;;;8.45;2.22;;;;;;;;;;5044020;28;20101;-69
2021/09/18 02:34:16;;;;;;;7.43;2.45;;;;;;;;;;5044676;28;20056;-69
2021/09/18 02:36:42;;;;;;;5.10;2.13;;;;;;;;;;5040530;28;20078;-69
2021/09/18 02:39:09;;;;;;;5.63;2.20;;;;;;;;;;5041969;28;20051;-69
2021/09/18 02:41:35;;;;;;;4.43;2.00;;;;;;;;;;5044243;28;20508;-69
2021/09/18 02:44:01;;;;;;;5.60;2.55;;;;;;;;;;5041708;28;20044;-69
2021/09/18 02:46:27;;;;;;;4.95;2.13;;;;;;;;;;5066083;28;21500;-69
2021/09/18 02:48:54;;;;;;;4.57;2.00;;;;;;;;;;5044846;28;20044;-69
2021/09/18 02:51:20;;;;;;;5.05;2.38;;;;;;;;;;5045848;28;20458;-69
2021/09/18 02:53:46;;;;;;;6.00;2.65;;;;;;;;;;5044961;28;20049;-69
2021/09/18 02:56:12;;;;;;;4.53;2.35;;;;;;;;;;5044029;28;20049;-69
2021/09/18 02:58:38;;;;;;;6.00;2.70;;;;;;;;;;5044060;28;20059;-69
2021/09/18 03:01:04;;;;;;;4.28;2.55;;;;;;;;;;5041293;28;20040;-69
2021/09/18 03:03:31;;;;;;;7.10;3.08;;;;;;;;;;5043772;28;20048;-69
2021/09/18 03:05:57;;;;;;;5.50;2.53;;;;;;;;;;5028681;28;20213;-69
2021/09/18 03:08:23;;;;;;;4.50;2.63;;;;;;;;;;5063237;28;20033;-69
2021/09/18 03:10:49;;;;;;;5.40;2.42;;;;;;;;;;5062683;28;20388;-69
2021/09/18 03:13:15;;;;;;;7.35;3.30;;;;;;;;;;5042947;28;20063;-69
2021/09/18 03:15:41;;;;;;;5.43;2.63;;;;;;;;;;5060426;28;20060;-69
2021/09/18 03:18:08;;;;;;;5.55;2.47;;;;;;;;;;5043386;28;20127;-69
2021/09/18 03:20:34;;;;;;;6.35;3.20;;;;;;;;;;5045580;28;20061;-69
2021/09/18 03:23:00;;;;;;;6.22;3.15;;;;;;;;;;5054915;28;20040;-69
2021/09/18 03:25:26;;;;;;;9.15;3.88;;;;;;;;;;5044155;28;20087;-69
2021/09/18 03:27:52;;;;;;;6.57;3.13;;;;;;;;;;5042400;28;20452;-69
2021/09/18 03:30:18;;;;;;;7.35;2.90;;;;;;;;;;5064340;28;20124;-69
2021/09/18 03:32:45;;;;;;;4.85;2.53;;;;;;;;;;5039592;28;20051;-69
2021/09/18 03:35:11;;;;;;;6.55;2.88;;;;;;;;;;5061717;28;20136;-69
2021/09/18 03:37:37;;;;;;;5.97;3.05;;;;;;;;;;5040457;28;21386;-69
2021/09/18 03:40:05;;;;;;;7.63;2.22;;;;;;;;;;5060001;28;20742;-69
2021/09/18 03:42:31;;;;;;;5.25;2.70;;;;;;;;;;5058210;28;20087;-69
2021/09/18 03:44:57;;;;;;;9.73;3.25;;;;;;;;;;5060305;28;20040;-69
2021/09/18 03:47:24;;;;;;;5.88;2.85;;;;;;;;;;5043179;28;20032;-69
2021/09/18 03:49:50;;;;;;;5.18;3.15;;;;;;;;;;5063671;28;20076;-69
2021/09/18 03:52:16;;;;;;;4.28;2.90;;;;;;;;;;5064049;28;20037;-69
2021/09/18 03:54:42;;;;;;;5.05;2.90;;;;;;;;;;5046481;28;20050;-69
2021/09/18 03:57:09;;;;;;;6.05;2.92;;;;;;;;;;5063503;28;20494;-69
2021/09/18 03:59:35;;;;;;;5.80;3.33;;;;;;;;;;5044126;28;20045;-69
2021/09/18 04:02:01;;;;;;;7.35;3.40;;;;;;;;;;5042604;28;20123;-69
2021/09/18 04:04:27;;;;;;;7.55;3.22;;;;;;;;;;5062149;28;20048;-69
2021/09/18 04:06:53;;;;;;;7.00;3.40;;;;;;;;;;5046428;28;20114;-69
2021/09/18 04:09:20;;;;;;;7.57;3.40;;;;;;;;;;5060975;28;20040;-69
2021/09/18 04:11:46;;;;;;;5.80;3.30;;;;;;;;;;5042966;28;20082;-69
2021/09/18 04:14:12;;;;;;;6.85;3.58;;;;;;;;;;5043848;28;20044;-69
2021/09/18 04:16:38;;;;;;;5.43;3.38;;;;;;;;;;5061309;28;20052;-69
2021/09/18 04:19:04;;;;;;;6.97;3.42;;;;;;;;;;5043316;28;20109;-69
2021/09/18 04:21:31;;;;;;;7.05;3.13;;;;;;;;;;5026972;28;20429;-69
2021/09/18 04:23:57;;;;;;;5.80;3.25;;;;;;;;;;5061567;28;20060;-69
2021/09/18 04:26:23;;;;;;;8.50;3.60;;;;;;;;;;5043585;28;20520;-69
2021/09/18 04:28:49;;;;;;;7.47;3.58;;;;;;;;;;5041353;28;20453;-69
2021/09/18 04:31:15;;;;;;;7.75;3.50;;;;;;;;;;5062027;28;20119;-69
2021/09/18 04:33:42;;;;;;;17.08;3.15;;;;;;;;;;5037369;28;20045;-69
2021/09/18 04:36:08;;;;;;;5.55;2.95;;;;;;;;;;5044348;28;20138;-69
2021/09/18 04:38:34;;;;;;;6.57;2.95;;;;;;;;;;5040946;28;20057;-69
2021/09/18 04:41:00;;;;;;;5.95;3.00;;;;;;;;;;5054747;28;20037;-69
2021/09/18 04:43:27;;;;;;;4.30;2.92;;;;;;;;;;5059225;28;20414;-69
2021/09/18 04:45:53;;;;;;;5.65;3.08;;;;;;;;;;5020968;28;20045;-69
2021/09/18 04:48:19;;;;;;;14.35;3.80;;;;;;;;;;5044370;28;20418;-69
2021/09/18 04:50:46;;;;;;;6.00;3.08;;;;;;;;;;5060675;28;20036;-69
2021/09/18 04:53:12;;;;;;;5.63;3.20;;;;;;;;;;5055602;28;20464;-69
2021/09/18 04:55:38;;;;;;;6.53;2.90;;;;;;;;;;5044966;28;20040;-69
2021/09/18 04:58:04;;;;;;;11.20;3.28;;;;;;;;;;5043408;28;20040;-69
2021/09/18 05:00:30;;;;;;;5.15;3.17;;;;;;;;;;5046317;28;20040;-69
2021/09/18 05:02:57;;;;;;;5.82;3.03;;;;;;;;;;5058909;28;20132;-69
2021/09/18 05:05:23;;;;;;;5.47;3.30;;;;;;;;;;5039786;28;20045;-69
2021/09/18 05:07:49;;;;;;;6.88;3.30;;;;;;;;;;5024455;28;20056;-69
2021/09/18 05:10:15;;;;;;;5.15;2.97;;;;;;;;;;5042404;28;20124;-69
2021/09/18 05:12:41;;;;;;;5.80;3.50;;;;;;;;;;5059093;28;20124;-69
2021/09/18 05:15:08;;;;;;;7.00;3.13;;;;;;;;;;5051075;28;20093;-69
2021/09/18 05:17:34;;;;;;;7.60;4.03;;;;;;;;;;5041804;28;20051;-69
2021/09/18 05:20:01;;;;;;;4.70;2.97;;;;;;;;;;5037779;28;20744;-69
2021/09/18 05:22:27;;;;;;;7.28;3.53;;;;;;;;;;5056404;28;20140;-69
2021/09/18 05:24:53;;;;;;;5.72;3.05;;;;;;;;;;5038289;28;20135;-69
2021/09/18 05:27:19;;;;;;;4.47;2.75;;;;;;;;;;5043999;28;20048;-69
2021/09/18 05:29:45;;;;;;;10.10;2.88;;;;;;;;;;5060564;28;20103;-69
2021/09/18 05:32:12;;;;;;;8.88;3.92;;;;;;;;;;5040800;28;20049;-69
2021/09/18 05:34:38;;;;;;;6.55;3.15;;;;;;;;;;5059170;28;20052;-69
2021/09/18 05:37:05;;;;;;;7.28;3.13;;;;;;;;;;5043618;28;20056;-69
2021/09/18 05:39:31;;;;;;;10.35;3.80;;;;;;;;;;5061758;28;20059;-69
2021/09/18 05:41:57;;;;;;;8.68;3.45;;;;;;;;;;5058550;28;20120;-69
2021/09/18 05:44:23;;;;;;;7.95;3.00;;;;;;;;;;5046508;28;20036;-69
2021/09/18 05:46:50;;;;;;;5.72;3.38;;;;;;;;;;5048554;28;20150;-69
2021/09/18 05:49:16;;;;;;;6.85;3.95;;;;;;;;;;5039717;28;20036;-69
2021/09/18 05:51:42;;;;;;;5.25;3.05;;;;;;;;;;5042901;28;20101;-69
2021/09/18 05:54:08;;;;;;;5.85;3.03;;;;;;;;;;5063983;28;20076;-69
2021/09/18 05:56:35;;;;;;;6.60;3.22;;;;;;;;;;5044978;28;20052;-69
2021/09/18 05:59:01;;;;;;;7.40;4.05;;;;;;;;;;5042287;28;20049;-69
2021/09/18 06:01:28;;;;;;;6.80;4.03;;;;;;;;;;5045253;28;20132;-69
2021/09/18 06:03:54;;;;;;;6.90;3.85;;;;;;;;;;5063614;28;20083;-69
2021/09/18 06:06:20;;;;;;;4.95;3.70;;;;;;;;;;5027528;28;20037;-75
2021/09/18 06:08:47;;;;;;;5.82;3.30;;;;;;;;;;5042796;28;20131;-68
2021/09/18 06:11:13;;;;;;;8.32;4.50;;;;;;;;;;5061630;28;20124;-68
2021/09/18 06:13:39;;;;;;;7.53;4.50;;;;;;;;;;5040817;28;21022;-68
2021/09/18 06:16:06;;;;;;;6.57;4.38;;;;;;;;;;5041524;28;20115;-68
2021/09/18 06:18:32;;;;;;;6.40;3.70;;;;;;;;;;5040157;28;20091;-68
2021/09/18 06:21:00;;;;;;;6.20;4.40;;;;;;;;;;5038161;28;20109;-68
2021/09/18 06:23:27;;;;;;;5.70;4.03;;;;;;;;;;5041613;28;20088;-68
2021/09/18 06:25:53;;;;;;;6.18;3.85;;;;;;;;;;5038724;28;20064;-68
2021/09/18 06:28:20;;;;;;;5.68;3.75;;;;;;;;;;5061063;28;20037;-68
2021/09/18 06:30:46;;;;;;;7.70;4.00;;;;;;;;;;5059449;28;20039;-68
2021/09/18 06:33:13;;;;;;;8.70;4.03;;;;;;;;;;5043196;28;20055;-68
2021/09/18 06:35:39;;;;;;;6.18;3.92;;;;;;;;;;5022766;28;20072;-68
2021/09/18 06:38:06;;;;;;;8.30;3.63;;;;;;;;;;5039160;28;20131;-68
2021/09/18 06:40:32;;;;;;;8.23;3.63;;;;;;;;;;5043905;28;20431;-68
2021/09/18 06:42:59;;;;;;;7.78;4.25;;;;;;;;;;5043645;28;20132;-68
2021/09/18 06:45:25;;;;;;;7.32;4.10;;;;;;;;;;5062969;28;20519;-67
2021/09/18 06:47:51;;;;;;;4.88;3.20;;;;;;;;;;5041144;28;20052;-69
2021/09/18 06:50:17;;;;;;;6.50;3.47;;;;;;;;;;5063272;28;20377;-68
2021/09/18 06:52:43;;;;;;;6.32;3.45;;;;;;;;;;5044209;28;20496;-69
2021/09/18 06:55:10;;;;;;;6.90;2.88;;;;;;;;;;5062095;28;20041;-69
2021/09/18 06:57:38;;;;;;;6.97;3.03;;;;;;;;;;5046155;28;20041;-68
2021/09/18 07:00:06;;;;;;;5.85;2.90;;;;;;;;;;5039750;28;20056;-69
2021/09/18 07:02:32;;;;;;;6.32;2.92;;;;;;;;;;5040690;28;20124;-69
2021/09/18 07:05:00;;;;;;;5.05;2.53;;;;;;;;;;5044758;28;20059;-69
2021/09/18 07:07:29;;;;;;;4.25;2.63;;;;;;;;;;5055309;28;20496;-68
2021/09/18 07:09:55;;;;;;;8.60;2.88;;;;;;;;;;5041936;28;20054;-79
2021/09/18 07:12:22;;;;;;;5.07;2.20;;;;;;;;;;5043982;28;20059;-68
2021/09/18 07:14:48;;;;;;;6.22;2.13;;;;;;;;;;5039666;28;20063;-69
2021/09/18 07:17:14;;;;;;;6.78;2.15;;;;;;;;;;5041351;28;20047;-69
2021/09/18 07:19:40;;;;;;;4.13;1.80;;;;;;;;;;5039783;28;20047;-68
2021/09/18 07:22:06;;;;;;;6.35;2.30;;;;;;;;;;5040204;28;20076;-69
2021/09/18 07:24:34;;;;;;;11.43;2.33;;;;;;;;;;5038345;28;20076;-68
2021/09/18 07:27:00;;;;;;;4.53;1.70;;;;;;;;;;5036272;28;20048;-68
2021/09/18 07:29:27;;;;;;;4.32;1.70;;;;;;;;;;5044384;28;20041;-68
2021/09/18 07:31:54;;;;;;;3.70;1.50;;;;;;;;;;5062920;28;20049;-68
2021/09/18 07:34:21;;;;;;;5.18;1.60;;;;;;;;;;5044828;28;20067;-68
2021/09/18 07:36:47;;;;;;;6.90;1.60;;;;;;;;;;5060377;28;20056;-68
2021/09/18 07:39:13;;;;;;;5.80;2.28;;;;;;;;;;5060153;28;20037;-68
2021/09/18 07:41:41;;;;;;;4.85;1.35;;;;;;;;;;5043313;28;20088;-68
2021/09/18 07:44:07;;;;;;;3.78;1.40;;;;;;;;;;5042575;28;20055;-68
2021/09/18 07:46:33;;;;;;;4.85;1.77;;;;;;;;;;5045174;28;20511;-67
2021/09/18 07:49:00;;;;;;;4.95;1.42;;;;;;;;;;5043328;28;20051;-68
2021/09/18 07:51:26;;;;;;;3.45;1.60;;;;;;;;;;5043137;28;20048;-68
2021/09/18 07:53:52;;;;;;;4.32;1.40;;;;;;;;;;5041023;28;20055;-68
2021/09/18 07:56:20;;;;;;;6.05;1.08;;;;;;;;;;5043274;28;20492;-68
2021/09/18 07:58:46;;;;;;;4.20;1.65;;;;;;;;;;5041379;28;20049;-68
2021/09/18 08:01:13;;;;;;;2.60;0.95;;;;;;;;;;5040327;28;20086;-68
2021/09/18 08:03:39;;;;;;;3.40;0.98;;;;;;;;;;5059220;28;20647;-68
2021/09/18 08:06:06;;;;;;;5.32;1.10;;;;;;;;;;5040428;28;20059;-68
2021/09/18 08:08:33;;;;;;;2.75;0.80;;;;;;;;;;5058930;28;20067;-69
2021/09/18 08:10:59;;;;;;;3.53;1.20;;;;;;;;;;5043559;28;20032;-68
2021/09/18 08:13:25;;;;;;;2.75;1.02;;;;;;;;;;5042890;28;20052;-69
2021/09/18 08:15:51;;;;;;;5.72;1.15;;;;;;;;;;5062052;28;20063;-68
2021/09/18 08:18:18;;;;;;;3.63;0.70;;;;;;;;;;5059497;28;20059;-68
2021/09/18 08:20:44;;;;;;;3.47;0.88;;;;;;;;;;5057426;28;20056;-68
2021/09/18 08:23:10;;;;;;;4.00;1.00;;;;;;;;;;5061525;28;20510;-69
2021/09/18 08:25:36;;;;;;;8.10;1.88;;;;;;;;;;5061421;28;20036;-68
2021/09/18 08:28:03;;;;;;;3.70;1.40;;;;;;;;;;5056788;28;20167;-69
2021/09/18 08:30:29;;;;;;;4.47;1.02;;;;;;;;;;5041561;28;20033;-68
2021/09/18 08:32:55;;;;;;;4.88;1.50;;;;;;;;;;5037438;28;20055;-68
2021/09/18 08:35:21;;;;;;;5.97;1.50;;;;;;;;;;5043782;28;20055;-69
2021/09/18 08:37:48;;;;;;;2.47;1.10;;;;;;;;;;5057441;28;20179;-68
2021/09/18 08:40:14;;;;;;;4.63;1.52;;;;;;;;;;5034726;28;20120;-68
2021/09/18 08:42:41;;;;;;;5.32;1.65;;;;;;;;;;5062064;28;20036;-69
2021/09/18 08:45:10;;;;;;;3.58;1.80;;;;;;;;;;5044926;28;20072;-68
2021/09/18 08:47:37;;;;;;;3.97;1.60;;;;;;;;;;5045621;28;20518;-69
2021/09/18 08:50:05;;;;;;;4.20;1.95;;;;;;;;;;5040192;28;21677;-69
2021/09/18 08:52:31;;;;;;;4.25;1.83;;;;;;;;;;5042681;28;20492;-69
2021/09/18 08:54:57;;;;;;;4.82;1.88;;;;;;;;;;5041639;28;20043;-69
2021/09/18 08:57:24;;;;;;;5.47;1.83;;;;;;;;;;5027071;28;20485;-69
2021/09/18 08:59:50;;;;;;;3.83;1.90;;;;;;;;;;5041093;28;20140;-68
2021/09/18 09:02:18;;;;;;;7.30;2.33;;;;;;;;;;5041552;28;20515;-68
2021/09/18 09:04:45;;;;;;;4.93;1.50;;;;;;;;;;5057984;28;20045;-68
2021/09/18 09:07:12;;;;;;;3.33;1.33;;;;;;;;;;5044430;28;20056;-68
2021/09/18 09:09:53;;;;;;;6.65;1.70;;;;;;;;;;5039857;28;20407;-69
2021/09/18 09:12:24;;;;;;;5.30;1.60;;;;;;;;;;5048034;28;20295;-68
2021/09/18 09:14:50;;;;;;;6.78;1.58;;;;;;;;;;5059047;28;20044;-68
2021/09/18 09:17:25;;;;;;;6.00;1.17;;;;;;;;;;5059546;28;20370;-68
2021/09/18 09:19:52;;;;;;;4.45;1.17;;;;;;;;;;5044640;28;20056;-68
2021/09/18 09:22:37;;;;;;;4.40;1.13;;;;;;;;;;5023111;28;20059;-68
2021/09/18 09:25:04;;;;;;;4.78;1.40;;;;;;;;;;5041892;28;20115;-68
2021/09/18 09:27:30;;;;;;;5.43;1.20;;;;;;;;;;5047074;28;20048;-68
2021/09/18 09:29:57;;;;;;;6.70;1.88;;;;;;;;;;5044729;28;20826;-68
2021/09/18 09:32:25;;;;;;;8.23;1.55;;;;;;;;;;5039275;28;20387;-68
2021/09/18 09:34:53;;;;;;;3.97;1.10;;;;;;;;;;5044048;28;20496;-68
2021/09/18 09:37:20;;;;;;;5.75;1.02;;;;;;;;;;5054865;28;20044;-68
2021/09/18 09:39:52;;;;;;;5.30;1.88;;;;;;;;;;5028267;28;20052;-69
2021/09/18 09:42:25;;;;;;;5.03;1.25;;;;;;;;;;5037766;28;20064;-68
2021/09/18 09:44:52;;;;;;;7.30;2.03;;;;;;;;;;5043279;28;20048;-68
2021/09/18 09:47:22;;;;;;;2.70;1.00;;;;;;;;;;5041860;28;20071;-68
2021/09/18 09:49:50;;;;;;;6.28;1.83;;;;;;;;;;5039264;28;20361;-68
2021/09/18 09:52:22;;;;;;;4.43;1.30;;;;;;;;;;5038983;28;20039;-68
2021/09/18 09:54:49;;;;;;;8.63;1.33;;;;;;;;;;5057516;28;20404;-68
2021/09/18 09:57:15;;;;;;;5.55;1.73;;;;;;;;;;5042129;28;20157;-68
2021/09/18 09:59:42;;;;;;;3.03;1.02;;;;;;;;;;5061721;28;20480;-68
2021/09/18 10:02:09;;;;;;;5.90;1.60;;;;;;;;;;5037556;28;20048;-68
2021/09/18 10:04:36;;;;;;;5.72;2.08;;;;;;;;;;5038820;28;20132;-68
2021/09/18 10:07:03;;;;;;;7.45;3.05;;;;;;;;;;5042911;28;20058;-68
2021/09/18 10:09:29;;;;;;;6.43;1.90;;;;;;;;;;5038535;28;20388;-68
2021/09/18 10:11:56;;;;;;;6.32;1.80;;;;;;;;;;5057792;28;20504;-68
2021/09/18 10:14:25;;;;;;;6.80;2.28;;;;;;;;;;5044893;28;21025;-69
2021/09/18 10:16:53;;;;;;;6.13;2.20;;;;;;;;;;5044354;28;20124;-69
2021/09/18 10:19:32;;;;;;;5.95;2.67;;;;;;;;;;5044323;28;20061;-68
2021/09/18 10:24:44;;;;;;;5.47;2.67;;;;;;;;;;5045381;28;20492;-69
2021/09/18 10:27:14;;;;;;;6.60;2.70;;;;;;;;;;5039703;28;20043;-69
2021/09/18 10:29:41;;;;;;;5.55;2.80;;;;;;;;;;5061301;28;20416;-69
2021/09/18 10:32:07;;;;;;;6.20;3.60;;;;;;;;;;5059735;28;20076;-69
2021/09/18 10:34:33;;;;;;;6.63;3.53;;;;;;;;;;5043912;28;20049;-69
2021/09/18 10:36:59;;;;;;;6.38;3.78;;;;;;;;;;5039553;28;20421;-68
2021/09/18 10:39:26;;;;;;;7.47;3.83;;;;;;;;;;5057543;28;20453;-68
2021/09/18 10:41:53;;;;;;;10.68;3.85;;;;;;;;;;5043309;28;20427;-69
2021/09/18 10:44:21;;;;;;;8.65;4.10;;;;;;;;;;5040506;28;20103;-69
2021/09/18 10:46:48;;;;;;;7.00;4.00;;;;;;;;;;5044568;28;20122;-69
2021/09/18 10:49:33;;;;;;;7.88;4.80;;;;;;;;;;5041645;28;20032;-69
2021/09/18 10:52:20;;;;;;;8.85;4.25;;;;;;;;;;5044436;28;20169;-69
2021/09/18 10:55:02;;;;;;;8.18;4.35;;;;;;;;;;5040623;28;20127;-69
2021/09/18 10:57:49;;;;;;;8.60;4.85;;;;;;;;;;5045389;28;20036;-69
2021/09/18 11:00:18;;;;;;;8.10;4.63;;;;;;;;;;5043349;28;20872;-69
2021/09/18 11:02:47;;;;;;;11.18;4.75;;;;;;;;;;5045037;28;20067;-69
2021/09/18 11:05:33;;;;;;;7.90;4.97;;;;;;;;;;5039031;28;20315;-69
2021/09/18 11:08:01;;;;;;;6.90;4.28;;;;;;;;;;5041570;28;20044;-69
2021/09/18 11:10:28;;;;;;;9.50;5.70;;;;;;;;;;5039180;28;20086;-69
2021/09/18 11:13:18;;;;;;;10.57;4.85;;;;;;;;;;5042197;28;20136;-68
2021/09/18 11:15:47;;;;;;;13.10;5.53;;;;;;;;;;5044937;28;20047;-69
2021/09/18 11:18:15;;;;;;;9.40;4.97;;;;;;;;;;5060100;28;20049;-69
2021/09/18 11:20:42;;;;;;;10.35;5.00;;;;;;;;;;5037773;28;20061;-69
2021/09/18 11:23:09;;;;;;;8.55;5.25;;;;;;;;;;5057207;28;20124;-70
2021/09/18 11:25:36;;;;;;;9.05;6.25;;;;;;;;;;5043133;28;20248;-69
2021/09/18 11:28:04;;;;;;;8.57;5.68;;;;;;;;;;5039444;28;20048;-69
2021/09/18 11:30:47;;;;;;;8.10;5.82;;;;;;;;;;5041341;28;20369;-69
2021/09/18 11:33:16;;;;;;;8.63;5.65;;;;;;;;;;5061272;28;20544;-69
2021/09/18 11:35:50;;;;;;;8.15;6.00;;;;;;;;;;5055668;28;20079;-69
2021/09/18 11:38:20;;;;;;;10.25;5.68;;;;;;;;;;5043113;28;20045;-69
2021/09/18 11:40:46;;;;;;;9.93;5.95;;;;;;;;;;5039982;28;20123;-70
2021/09/18 11:43:13;;;;;;;11.20;6.82;;;;;;;;;;5058181;28;20116;-70
2021/09/18 11:45:39;;;;;;;8.52;5.45;;;;;;;;;;5041267;28;20045;-69
2021/09/18 11:48:07;;;;;;;13.27;6.18;;;;;;;;;;5061321;28;20052;-69
2021/09/18 11:50:36;;;;;;;9.43;6.03;;;;;;;;;;5058799;28;20052;-69
2021/09/18 11:53:06;;;;;;;9.57;5.82;;;;;;;;;;5040779;28;20044;-69
2021/09/18 11:55:36;;;;;;;10.23;6.30;;;;;;;;;;5057191;28;20124;-69
2021/09/18 11:58:11;;;;;;;7.45;4.18;;;;;;;;;;5057252;28;20048;-69
2021/09/18 12:00:39;;;;;;;8.50;4.90;;;;;;;;;;5041450;28;20062;-69
2021/09/18 12:03:05;;;;;;;11.20;5.22;;;;;;;;;;5041798;28;20044;-69
2021/09/18 12:05:31;;;;;;;7.28;5.20;;;;;;;;;;5042175;28;20123;-69
2021/09/18 12:07:58;;;;;;;8.98;5.75;;;;;;;;;;5041492;28;20044;-69
2021/09/18 12:10:24;;;;;;;9.65;6.05;;;;;;;;;;5060679;28;20073;-69
2021/09/18 12:12:57;;;;;;;7.85;5.95;;;;;;;;;;5060744;28;20504;-69
2021/09/18 12:15:28;;;;;;;11.77;6.18;;;;;;;;;;5040499;28;20154;-69
2021/09/18 12:17:55;;;;;;;10.82;6.47;;;;;;;;;;5041041;28;20052;-70
2021/09/18 12:20:21;;;;;;;12.05;6.45;;;;;;;;;;5061048;28;20093;-69
2021/09/18 12:22:47;;;;;;;9.00;5.63;;;;;;;;;;5061969;28;20048;-70
2021/09/18 12:25:13;;;;;;;9.30;6.15;;;;;;;;;;5025811;28;20431;-70
2021/09/18 12:27:40;;;;;;;7.35;5.50;;;;;;;;;;5045114;28;20087;-70
2021/09/18 12:30:08;;;;;;;6.72;5.13;;;;;;;;;;5019848;28;20041;-70
2021/09/18 12:32:35;;;;;;;9.50;5.53;;;;;;;;;;5046039;28;20048;-69
2021/09/18 12:35:05;;;;;;;7.07;5.07;;;;;;;;;;5038475;28;20147;-68
2021/09/18 12:37:33;;;;;;;7.53;4.65;;;;;;;;;;5036835;28;20048;-68
2021/09/18 12:40:10;;;;;;;7.72;5.50;;;;;;;;;;5039113;28;21741;-68
2021/09/18 12:42:36;;;;;;;11.32;5.63;;;;;;;;;;5038052;28;20044;-68
2021/09/18 12:45:20;;;;;;;8.00;5.57;;;;;;;;;;5054713;28;21011;-69
2021/09/18 12:47:46;;;;;;;6.85;4.85;;;;;;;;;;5055365;28;20040;-69
2021/09/18 12:50:17;;;;;;;10.63;5.75;;;;;;;;;;5060470;28;20045;-69
2021/09/18 12:52:43;;;;;;;9.25;5.22;;;;;;;;;;5056043;28;20525;-69
2021/09/18 12:55:09;;;;;;;7.72;5.00;;;;;;;;;;5040806;28;20215;-69
2021/09/18 12:57:36;;;;;;;11.13;5.00;;;;;;;;;;5041256;28;20480;-69
2021/09/18 13:00:07;;;;;;;7.60;4.43;;;;;;;;;;5040285;28;20041;-69
2021/09/18 13:02:33;;;;;;;9.55;5.00;;;;;;;;;;5040487;28;20404;-68
2021/09/18 13:05:03;;;;;;;8.73;5.25;;;;;;;;;;5061693;28;20040;-69
2021/09/18 13:07:29;;;;;;;8.55;5.63;;;;;;;;;;5038188;28;20063;-69
2021/09/18 13:09:57;;;;;;;7.03;5.18;;;;;;;;;;5038790;28;20052;-68
2021/09/18 13:12:23;;;;;;;7.38;5.32;;;;;;;;;;5060136;28;20151;-68
2021/09/18 13:14:51;;;;;;;7.43;4.85;;;;;;;;;;5055650;28;20048;-68
2021/09/18 13:17:17;;;;;;;8.93;5.15;;;;;;;;;;5044046;28;20043;-68
2021/09/18 13:19:49;;;;;;;8.65;5.15;;;;;;;;;;5042830;28;20048;-68
2021/09/18 13:22:17;;;;;;;11.05;5.63;;;;;;;;;;5039944;28;20089;-68
2021/09/18 13:24:45;;;;;;;9.38;6.05;;;;;;;;;;5058701;28;20144;-68
2021/09/18 13:27:11;;;;;;;8.30;5.57;;;;;;;;;;5056832;28;20056;-68
2021/09/18 13:29:38;;;;;;;7.00;5.13;;;;;;;;;;5039762;28;20121;-68
2021/09/18 13:32:04;;;;;;;8.85;6.07;;;;;;;;;;5037960;28;20128;-65
2021/09/18 13:34:30;;;;;;;9.45;5.57;;;;;;;;;;5062447;28;20032;-65
2021/09/18 13:36:57;;;;;;;8.30;5.55;;;;;;;;;;5053319;28;20048;-64
2021/09/18 13:39:23;;;;;;;8.73;5.05;;;;;;;;;;5060722;28;20076;-64
2021/09/18 13:41:49;;;;;;;11.30;6.65;;;;;;;;;;5054557;28;20036;-65
2021/09/18 13:44:16;;;;;;;8.60;6.07;;;;;;;;;;5056571;28;20106;-64
2021/09/18 13:46:42;;;;;;;8.13;5.32;;;;;;;;;;5059307;28;20041;-65
2021/09/18 13:49:08;;;;;;;11.27;6.30;;;;;;;;;;5058245;28;20053;-64
2021/09/18 13:51:34;;;;;;;10.93;5.80;;;;;;;;;;5039993;28;20493;-64
2021/09/18 13:54:00;;;;;;;9.35;5.78;;;;;;;;;;5060754;28;20048;-65
2021/09/18 13:56:27;;;;;;;8.27;5.30;;;;;;;;;;5043060;28;20045;-64
2021/09/18 13:58:53;;;;;;;8.13;4.88;;;;;;;;;;5042509;28;20049;-64
2021/09/18 14:01:19;;;;;;;7.70;4.35;;;;;;;;;;5044782;28;20055;-64
2021/09/18 14:03:45;;;;;;;10.90;5.72;;;;;;;;;;5043019;28;20117;-64
2021/09/18 14:06:11;;;;;;;9.77;5.45;;;;;;;;;;5043748;28;20060;-64
2021/09/18 14:08:38;;;;;;;7.80;4.00;;;;;;;;;;5059132;28;20187;-65
2021/09/18 14:11:04;;;;;;;7.93;4.72;;;;;;;;;;5061806;28;20132;-65
2021/09/18 14:13:30;;;;;;;7.68;3.80;;;;;;;;;;5047941;28;20059;-65
2021/09/18 14:15:57;;;;;;;7.60;4.32;;;;;;;;;;5061345;28;20048;-65
2021/09/18 14:18:23;;;;;;;7.38;4.10;;;;;;;;;;5061411;28;20037;-65
2021/09/18 14:20:49;;;;;;;41.78;6.63;;;;;;;;;;5059489;28;20052;-65
2021/09/18 14:23:16;;;;;;;8.48;4.35;;;;;;;;;;5061348;28;20473;-65
2021/09/18 14:25:42;;;;;;;9.80;4.35;;;;;;;;;;5062101;28;20127;-64
2021/09/18 14:28:09;;;;;;;11.27;4.72;;;;;;;;;;5047436;28;20071;-65
2021/09/18 14:30:35;;;;;;;6.32;3.15;;;;;;;;;;5060681;28;20056;-65
2021/09/18 14:33:01;;;;;;;8.05;4.18;;;;;;;;;;5062007;28;20115;-65
2021/09/18 14:35:27;;;;;;;7.35;3.25;;;;;;;;;;5061552;28;20060;-65
2021/09/18 14:37:55;;;;;;;6.32;3.40;;;;;;;;;;5064429;28;20086;-65
2021/09/18 14:40:21;;;;;;;8.23;3.75;;;;;;;;;;5062933;28;20044;-65
2021/09/18 14:42:48;;;;;;;6.78;3.08;;;;;;;;;;5059538;28;20383;-65
2021/09/18 14:45:14;;;;;;;7.45;2.95;;;;;;;;;;5061860;28;20115;-65